Time;durP1;ratioP1;P1;durP2;ratioP2;P2;SDS_P1;SDS_P2;PMS_P1;PMS_P2;Temp;Humidity;BMP_temperature;BMP_pressure;BME280_temperature;BME280_humidity;BME280_pressure;Samples;Min_cycle;Max_cycle;Signal;HPM_P1;HPM_P2
2023/02/06 00:00:41;;;;;;;11.18;4.93;;;;;;;0.08;98.25;93816.25;6183660;23;20013;-78
2023/02/06 00:03:07;;;;;;;11.02;4.35;;;;;;;0.06;99.01;93821.56;6183587;23;20028;-78
2023/02/06 00:05:32;;;;;;;9.40;4.28;;;;;;;0.14;98.44;93825.78;6156480;23;20112;-78
2023/02/06 00:07:58;;;;;;;10.32;4.70;;;;;;;0.05;99.01;93820.00;6182866;23;20032;-78
2023/02/06 00:10:24;;;;;;;7.22;4.10;;;;;;;-0.01;99.18;93810.44;6132634;23;20009;-78
2023/02/06 00:12:50;;;;;;;14.88;5.03;;;;;;;-0.02;99.65;93817.38;6183098;23;20376;-78
2023/02/06 00:15:15;;;;;;;16.05;5.30;;;;;;;-0.02;99.94;93816.59;6157757;23;20039;-78
2023/02/06 00:17:41;;;;;;;11.30;4.03;;;;;;;-0.02;100.00;93819.16;6157663;23;20029;-78
2023/02/06 00:20:09;;;;;;;8.40;4.10;;;;;;;0.01;100.00;93816.19;6183023;23;20068;-77
2023/02/06 00:22:35;;;;;;;7.70;4.20;;;;;;;0.01;100.00;93811.03;6182383;23;20013;-78
2023/02/06 00:25:01;;;;;;;11.70;4.80;;;;;;;-0.01;100.00;93820.72;6158363;23;20456;-78
2023/02/06 00:27:26;;;;;;;9.57;4.70;;;;;;;0.02;100.00;93822.91;6185804;23;20045;-78
2023/02/06 00:29:52;;;;;;;18.05;4.60;;;;;;;0.03;100.00;93823.75;6184617;23;20013;-78
2023/02/06 00:32:18;;;;;;;10.55;4.65;;;;;;;0.04;100.00;93823.53;6158916;23;20103;-78
2023/02/06 00:34:44;;;;;;;14.40;4.63;;;;;;;0.12;100.00;93822.59;6159227;23;20033;-78
2023/02/06 00:37:10;;;;;;;10.63;4.53;;;;;;;0.08;100.00;93817.03;6183936;23;20040;-78
2023/02/06 00:39:35;;;;;;;11.93;4.88;;;;;;;0.31;99.90;93824.47;6158221;23;19997;-78
2023/02/06 00:42:01;;;;;;;15.15;5.95;;;;;;;0.10;100.00;93824.56;6158935;23;20013;-78
2023/02/06 00:44:27;;;;;;;14.77;5.18;;;;;;;0.03;100.00;93828.88;6185137;23;20090;-78
2023/02/06 00:46:54;;;;;;;11.98;5.47;;;;;;;-0.11;100.00;93835.69;6158988;23;20371;-78
2023/02/06 00:49:20;;;;;;;14.30;5.72;;;;;;;-0.22;100.00;93837.81;6157697;23;20036;-78
2023/02/06 00:51:47;;;;;;;12.20;5.18;;;;;;;-0.23;100.00;93836.22;6132977;23;20013;-78
2023/02/06 00:54:13;;;;;;;11.70;5.55;;;;;;;-0.22;100.00;93840.41;6185408;23;20005;-78
2023/02/06 00:56:40;;;;;;;12.02;5.43;;;;;;;-0.25;100.00;93843.34;6158854;23;20017;-78
2023/02/06 00:59:06;;;;;;;12.68;5.60;;;;;;;-0.24;100.00;93842.34;6158119;23;20092;-78
2023/02/06 01:01:32;;;;;;;10.65;5.10;;;;;;;-0.24;100.00;93842.34;6183823;23;20045;-78
2023/02/06 01:03:57;;;;;;;11.55;5.22;;;;;;;-0.24;100.00;93839.78;6185050;23;20005;-78
2023/02/06 01:06:23;;;;;;;9.65;4.60;;;;;;;-0.27;100.00;93850.47;6158761;23;20101;-78
2023/02/06 01:08:50;;;;;;;10.07;4.65;;;;;;;-0.34;100.00;93844.44;6159115;23;20006;-78
2023/02/06 01:11:19;;;;;;;9.82;3.65;;;;;;;-0.36;100.00;93846.44;6184483;23;20087;-78
2023/02/06 01:13:45;;;;;;;8.02;3.78;;;;;;;-0.33;100.00;93840.91;6185133;23;20003;-78
2023/02/06 01:16:13;;;;;;;8.50;3.45;;;;;;;0.05;100.00;93844.94;6159130;23;20023;-78
2023/02/06 01:18:39;;;;;;;10.48;3.83;;;;;;;0.05;100.00;93853.47;6184846;23;20368;-78
2023/02/06 01:21:13;;;;;;;12.60;4.53;;;;;;;-0.06;100.00;93851.41;6184714;23;20100;-78
2023/02/06 01:23:40;;;;;;;7.75;3.97;;;;;;;-0.18;100.00;93852.88;6184724;23;20024;-78
2023/02/06 01:26:07;;;;;;;12.02;4.38;;;;;;;-0.26;100.00;93851.25;6185061;23;20044;-78
2023/02/06 01:28:39;;;;;;;11.60;3.92;;;;;;;-0.25;100.00;93853.66;6134244;23;20033;-78
2023/02/06 01:31:12;;;;;;;11.60;4.72;;;;;;;-0.28;100.00;93859.16;6185254;23;20009;-78
2023/02/06 01:33:39;;;;;;;12.32;4.18;;;;;;;-0.32;100.00;93846.84;6184575;23;20009;-78
2023/02/06 01:36:05;;;;;;;9.15;4.32;;;;;;;-0.38;100.00;93837.28;6158661;23;20028;-78
2023/02/06 01:38:31;;;;;;;9.75;4.30;;;;;;;-0.37;100.00;93849.19;6158193;23;20319;-78
2023/02/06 01:40:58;;;;;;;11.02;4.00;;;;;;;-0.37;100.00;93854.31;6184979;23;20005;-78
2023/02/06 01:43:28;;;;;;;10.43;4.28;;;;;;;-0.41;100.00;93853.88;6184543;23;20013;-78
2023/02/06 01:45:54;;;;;;;8.23;4.00;;;;;;;-0.45;100.00;93857.81;6158308;23;20012;-78
2023/02/06 01:48:25;;;;;;;9.23;4.15;;;;;;;-0.51;100.00;93846.50;6184969;23;20016;-78
2023/02/06 01:50:54;;;;;;;7.97;4.30;;;;;;;-0.53;100.00;93853.59;6185036;23;20033;-78
2023/02/06 01:53:21;;;;;;;7.80;3.70;;;;;;;-0.53;100.00;93856.16;6158245;23;20028;-78
2023/02/06 01:55:49;;;;;;;10.40;4.30;;;;;;;-0.54;100.00;93856.34;6158189;23;20051;-78
2023/02/06 01:58:26;;;;;;;7.32;4.15;;;;;;;-0.51;100.00;93856.00;6158709;23;20116;-78
2023/02/06 02:00:52;;;;;;;11.85;4.30;;;;;;;-0.55;100.00;93852.97;6158609;23;20013;-78
2023/02/06 02:03:18;;;;;;;14.48;4.60;;;;;;;-0.58;100.00;93848.22;6158283;23;20082;-78
2023/02/06 02:05:46;;;;;;;12.15;4.10;;;;;;;-0.58;100.00;93857.72;6184962;23;20062;-78
2023/02/06 02:08:19;;;;;;;8.55;3.95;;;;;;;-0.58;100.00;93858.50;6157862;23;20380;-78
2023/02/06 02:10:45;;;;;;;7.88;3.65;;;;;;;-0.66;100.00;93846.53;6156717;23;20016;-78
2023/02/06 02:13:10;;;;;;;12.80;4.68;;;;;;;-0.69;100.00;93852.06;6132651;23;20005;-78
2023/02/06 02:15:59;;;;;;;11.68;4.32;;;;;;;-0.69;100.00;93862.34;6158054;23;20041;-78
2023/02/06 02:18:49;;;;;;;13.05;4.38;;;;;;;-0.70;100.00;93855.63;6184423;23;20020;-78
2023/02/06 02:21:51;;;;;;;6.70;3.72;;;;;;;-0.73;100.00;93853.41;6158091;23;20020;-78
2023/02/06 02:24:28;;;;;;;9.95;3.65;;;;;;;-0.74;100.00;93845.91;6157781;23;20013;-78
2023/02/06 02:27:14;;;;;;;12.27;4.35;;;;;;;-0.79;100.00;93851.56;6158038;23;20019;-78
2023/02/06 02:29:58;;;;;;;11.05;4.07;;;;;;;-0.80;100.00;93851.75;6133320;23;20071;-78
2023/02/06 02:32:39;;;;;;;14.90;4.50;;;;;;;-0.83;100.00;93852.94;6184525;23;20079;-78
2023/02/06 02:35:18;;;;;;;8.85;4.05;;;;;;;-0.84;100.00;93846.97;6157273;23;20016;-78
2023/02/06 02:38:12;;;;;;;8.05;4.13;;;;;;;-0.81;100.00;93847.56;6157022;23;20037;-78
2023/02/06 02:40:52;;;;;;;7.78;3.83;;;;;;;-0.81;100.00;93843.25;6158480;23;20009;-78
2023/02/06 02:43:39;;;;;;;9.35;4.28;;;;;;;-0.81;100.00;93853.53;6157608;23;20020;-77
2023/02/06 02:46:27;;;;;;;8.13;3.95;;;;;;;-0.78;100.00;93855.75;6158293;23;20055;-78
2023/02/06 02:48:59;;;;;;;12.15;3.90;;;;;;;-0.75;100.00;93857.13;6184310;23;20063;-78
2023/02/06 02:51:24;;;;;;;12.05;4.35;;;;;;;-0.72;100.00;93856.75;6182956;23;20016;-78
2023/02/06 02:53:50;;;;;;;12.55;4.13;;;;;;;-0.70;100.00;93860.78;6156525;23;20004;-78
2023/02/06 02:56:23;;;;;;;7.13;3.88;;;;;;;-0.68;100.00;93853.63;6133149;23;20035;-78
2023/02/06 02:59:10;;;;;;;9.48;3.65;;;;;;;-0.70;100.00;93850.47;6157848;23;20496;-78
2023/02/06 03:01:50;;;;;;;8.07;3.85;;;;;;;-0.62;100.00;93862.41;6157479;23;20064;-78
2023/02/06 03:04:23;;;;;;;7.63;4.05;;;;;;;-0.55;100.00;93860.69;6184431;23;20016;-78
2023/02/06 03:07:07;;;;;;;10.45;4.20;;;;;;;-0.51;100.00;93861.94;6133254;23;20449;-78
2023/02/06 03:09:47;;;;;;;8.48;3.17;;;;;;;-0.50;100.00;93858.34;6156404;23;20091;-78
2023/02/06 03:12:36;;;;;;;7.75;3.90;;;;;;;-0.49;100.00;93847.09;6157407;23;20132;-78
2023/02/06 03:15:22;;;;;;;8.18;3.13;;;;;;;-0.48;100.00;93846.09;6157372;23;20096;-78
2023/02/06 03:18:04;;;;;;;9.65;3.47;;;;;;;-0.44;100.00;93855.06;6157862;23;20040;-78
2023/02/06 03:20:30;;;;;;;6.70;3.28;;;;;;;-0.42;100.00;93854.88;6157962;23;20076;-78
2023/02/06 03:22:58;;;;;;;8.13;3.38;;;;;;;-0.44;100.00;93846.56;6157517;23;20001;-78
2023/02/06 03:25:31;;;;;;;12.68;3.90;;;;;;;-0.43;100.00;93855.84;6156689;23;20024;-78
2023/02/06 03:27:58;;;;;;;10.25;3.42;;;;;;;-0.47;100.00;93852.88;6183523;23;20013;-78
2023/02/06 03:30:27;;;;;;;6.13;3.50;;;;;;;-0.51;100.00;93848.28;6183666;23;20019;-78
2023/02/06 03:33:02;;;;;;;12.35;3.88;;;;;;;-0.53;100.00;93865.66;6157984;23;20064;-78
2023/02/06 03:35:32;;;;;;;11.40;3.60;;;;;;;-0.52;100.00;93869.81;6158173;23;20445;-78
2023/02/06 03:37:58;;;;;;;9.02;3.55;;;;;;;-0.53;100.00;93858.75;6183482;23;20012;-78
2023/02/06 03:40:26;;;;;;;9.88;3.70;;;;;;;-0.49;100.00;93859.19;6157845;23;20019;-78
2023/02/06 03:42:55;;;;;;;7.35;3.45;;;;;;;-0.48;100.00;93850.47;6184360;23;20001;-78
2023/02/06 03:45:44;;;;;;;6.20;3.58;;;;;;;-0.47;100.00;93870.09;6132891;23;20101;-78
2023/02/06 03:48:16;;;;;;;7.25;3.80;;;;;;;-0.48;100.00;93878.75;6184137;23;20533;-77
2023/02/06 03:50:44;;;;;;;9.32;3.83;;;;;;;-0.53;100.00;93870.81;6184502;23;20009;-78
2023/02/06 03:53:12;;;;;;;10.30;3.78;;;;;;;-0.52;100.00;93872.38;6156440;23;20063;-77
2023/02/06 03:55:40;;;;;;;9.45;3.85;;;;;;;-0.54;100.00;93871.78;6184337;23;20100;-78
2023/02/06 03:58:10;;;;;;;7.60;3.47;;;;;;;-0.53;100.00;93875.97;6157867;23;20017;-78
2023/02/06 04:00:38;;;;;;;9.18;3.65;;;;;;;-0.50;100.00;93870.44;6186314;23;20072;-78
2023/02/06 04:03:04;;;;;;;7.07;3.85;;;;;;;-0.52;100.00;93873.22;6159522;23;20008;-77
2023/02/06 04:05:30;;;;;;;9.70;3.53;;;;;;;-0.51;100.00;93876.56;6185540;23;20477;-78
2023/02/06 04:07:55;;;;;;;8.48;3.88;;;;;;;-0.52;100.00;93878.34;6185127;23;20345;-78
2023/02/06 04:10:22;;;;;;;10.15;3.35;;;;;;;-0.44;100.00;93874.84;6185770;23;20392;-77
2023/02/06 04:12:47;;;;;;;7.68;3.60;;;;;;;-0.42;100.00;93878.03;6185286;23;20078;-77
2023/02/06 04:15:13;;;;;;;10.63;3.80;;;;;;;-0.44;100.00;93875.63;6185623;23;20021;-77
2023/02/06 04:17:39;;;;;;;9.40;3.80;;;;;;;-0.49;100.00;93888.25;6185484;23;20004;-76
2023/02/06 04:20:05;;;;;;;13.07;4.40;;;;;;;-0.52;100.00;93883.50;6159640;23;20121;-77
2023/02/06 04:22:31;;;;;;;7.90;3.75;;;;;;;-0.52;100.00;93882.69;6185117;23;20084;-77
2023/02/06 04:24:57;;;;;;;11.80;3.75;;;;;;;-0.59;100.00;93868.97;6185026;23;20077;-78
2023/02/06 04:27:23;;;;;;;7.72;4.00;;;;;;;-0.65;100.00;93868.72;6186445;23;20029;-77
2023/02/06 04:29:49;;;;;;;10.93;3.95;;;;;;;-0.66;100.00;93866.34;6159841;23;20314;-78
2023/02/06 04:32:14;;;;;;;6.88;3.67;;;;;;;-0.63;100.00;93871.91;6159829;23;20013;-78
2023/02/06 04:34:40;;;;;;;10.48;3.70;;;;;;;-0.61;100.00;93873.50;6159557;23;20063;-77
2023/02/06 04:37:06;;;;;;;13.95;4.53;;;;;;;-0.64;100.00;93874.66;6185370;23;20001;-78
2023/02/06 04:39:32;;;;;;;8.70;3.60;;;;;;;-0.60;100.00;93880.25;6158403;23;20522;-77
2023/02/06 04:41:58;;;;;;;11.05;4.05;;;;;;;-0.62;100.00;93883.00;6158000;23;20054;-77
2023/02/06 04:44:23;;;;;;;7.70;3.97;;;;;;;-0.61;100.00;93883.78;6134838;23;20055;-77
2023/02/06 04:46:49;;;;;;;11.63;3.88;;;;;;;-0.66;100.00;93877.41;6157978;23;20008;-77
2023/02/06 04:49:16;;;;;;;15.05;3.92;;;;;;;-0.59;100.00;93884.41;6184230;23;20044;-78
2023/02/06 04:51:42;;;;;;;9.98;4.10;;;;;;;-0.57;100.00;93878.09;6184219;23;20476;-77
2023/02/06 04:54:12;;;;;;;7.70;3.80;;;;;;;-0.55;100.00;93891.56;6158523;23;20016;-77
2023/02/06 04:56:38;;;;;;;9.90;3.83;;;;;;;-0.54;100.00;93894.94;6185356;23;20017;-77
2023/02/06 04:59:03;;;;;;;8.02;4.28;;;;;;;-0.52;100.00;93888.66;6158644;23;20057;-77
2023/02/06 05:01:29;;;;;;;12.10;4.22;;;;;;;-0.50;100.00;93891.00;6185694;23;20464;-77
2023/02/06 05:03:55;;;;;;;8.25;3.95;;;;;;;-0.53;100.00;93883.69;6186374;23;19997;-78
2023/02/06 05:06:20;;;;;;;13.52;4.70;;;;;;;-0.53;100.00;93888.81;6158301;23;20464;-77
2023/02/06 05:08:46;;;;;;;13.05;4.70;;;;;;;-0.40;100.00;93891.50;6158320;23;20020;-77
2023/02/06 05:11:11;;;;;;;9.13;4.07;;;;;;;-0.48;100.00;93891.63;6184085;23;20013;-77
2023/02/06 05:13:37;;;;;;;9.10;3.88;;;;;;;-0.49;100.00;93892.63;6184463;23;20314;-77
2023/02/06 05:16:07;;;;;;;10.85;4.32;;;;;;;-0.49;100.00;93895.97;6185483;23;20040;-77
2023/02/06 05:18:34;;;;;;;12.23;3.95;;;;;;;-0.49;100.00;93887.47;6134489;23;20051;-78
2023/02/06 05:20:59;;;;;;;16.35;7.35;;;;;;;-0.49;100.00;93890.06;6185167;23;20668;-78
2023/02/06 05:23:25;;;;;;;10.60;5.00;;;;;;;-0.51;100.00;93889.44;6184761;23;20024;-78
2023/02/06 05:25:51;;;;;;;9.07;4.72;;;;;;;-0.49;100.00;93890.84;6185877;23;19996;-78
2023/02/06 05:28:16;;;;;;;11.85;3.80;;;;;;;-0.55;100.00;93890.78;6185852;23;20020;-78
2023/02/06 05:30:42;;;;;;;14.73;4.20;;;;;;;-0.65;100.00;93884.16;6185433;23;20017;-78
2023/02/06 05:33:07;;;;;;;13.35;4.00;;;;;;;-0.66;100.00;93887.69;6185816;23;20013;-78
2023/02/06 05:35:33;;;;;;;8.60;3.78;;;;;;;-0.63;100.00;93884.78;6183872;23;20008;-78
2023/02/06 05:37:59;;;;;;;7.70;3.53;;;;;;;-0.58;100.00;93889.38;6158159;23;20481;-77
2023/02/06 05:40:24;;;;;;;11.57;3.78;;;;;;;-0.50;100.00;93891.81;6183646;23;20004;-77
2023/02/06 05:42:50;;;;;;;7.20;3.10;;;;;;;-0.41;99.88;93895.06;6184143;23;20027;-78
2023/02/06 05:45:15;;;;;;;8.90;3.40;;;;;;;-0.46;100.00;93902.53;6181921;23;20076;-77
2023/02/06 05:47:41;;;;;;;8.75;2.97;;;;;;;-0.41;99.40;93905.34;6184770;23;20013;-79
2023/02/06 05:50:07;;;;;;;7.50;2.97;;;;;;;-0.41;98.70;93910.50;6157943;23;20009;-77
2023/02/06 05:52:33;;;;;;;15.02;2.85;;;;;;;-0.42;99.44;93906.34;6160882;23;20093;-79
2023/02/06 05:54:58;;;;;;;5.18;2.50;;;;;;;-0.38;99.30;93906.75;6186106;23;20024;-78
2023/02/06 05:57:24;;;;;;;9.43;3.13;;;;;;;-0.31;96.98;93905.84;6185986;23;20338;-78
2023/02/06 05:59:49;;;;;;;7.75;3.00;;;;;;;-0.48;97.56;93904.50;6133194;23;20017;-77
2023/02/06 06:02:15;;;;;;;6.10;2.83;;;;;;;-0.54;98.41;93900.06;6158026;23;20017;-77
2023/02/06 06:04:40;;;;;;;11.23;3.33;;;;;;;-0.56;98.49;93902.03;6158438;23;20021;-80
2023/02/06 06:07:06;;;;;;;10.02;3.40;;;;;;;-0.58;98.08;93909.16;6158525;23;20031;-78
2023/02/06 06:09:32;;;;;;;5.90;3.10;;;;;;;-0.68;98.65;93901.72;6184356;23;20096;-78
2023/02/06 06:11:57;;;;;;;8.63;3.38;;;;;;;-0.69;98.39;93903.50;6186832;23;20024;-78
2023/02/06 06:14:23;;;;;;;10.75;3.80;;;;;;;-0.67;99.32;93905.91;6186897;23;20005;-78
2023/02/06 06:16:48;;;;;;;7.32;3.42;;;;;;;-0.66;98.97;93915.19;6160394;23;20106;-80
2023/02/06 06:19:14;;;;;;;11.70;3.65;;;;;;;-0.65;98.57;93914.22;6186307;23;20001;-78
2023/02/06 06:21:39;;;;;;;10.50;3.30;;;;;;;-0.65;96.54;93906.53;6185444;23;20044;-77
2023/02/06 06:24:05;;;;;;;5.28;2.80;;;;;;;-0.61;96.71;93912.06;6184199;23;20056;-78
2023/02/06 06:26:31;;;;;;;4.93;2.30;;;;;;;-0.42;93.67;93914.06;6184664;23;20048;-78
2023/02/06 06:28:56;;;;;;;7.28;3.55;;;;;;;-0.47;93.41;93900.94;6183888;23;20019;-78
2023/02/06 06:31:22;;;;;;;6.78;2.92;;;;;;;-0.48;92.71;93909.63;6184215;23;20024;-77
2023/02/06 06:33:48;;;;;;;6.63;2.63;;;;;;;-0.55;92.05;93916.50;6158894;23;20423;-77
2023/02/06 06:36:14;;;;;;;7.50;3.08;;;;;;;-0.68;92.37;93919.72;6159472;23;20445;-78
2023/02/06 06:38:39;;;;;;;5.63;2.65;;;;;;;-0.70;92.55;93919.94;6185103;23;20004;-77
2023/02/06 06:41:08;;;;;;;8.60;2.90;;;;;;;-0.59;90.50;93915.25;6158555;23;20017;-77
2023/02/06 06:43:33;;;;;;;7.32;2.67;;;;;;;-0.60;89.61;93914.47;6185906;23;20004;-78
2023/02/06 06:46:00;;;;;;;4.57;2.28;;;;;;;-0.50;88.16;93912.38;6185570;23;20012;-77
2023/02/06 06:48:26;;;;;;;5.95;2.22;;;;;;;-0.48;88.84;93914.78;6184969;23;20008;-77
2023/02/06 06:50:52;;;;;;;9.32;2.40;;;;;;;-0.57;88.51;93916.66;6158587;23;20017;-77
2023/02/06 06:53:18;;;;;;;8.85;2.78;;;;;;;-0.55;88.06;93916.50;6185311;23;20421;-77
2023/02/06 06:55:43;;;;;;;5.93;2.47;;;;;;;-0.63;88.64;93914.84;6159128;23;20025;-77
2023/02/06 06:58:09;;;;;;;6.35;2.50;;;;;;;-0.65;88.91;93925.31;6185015;23;20357;-77
2023/02/06 07:00:36;;;;;;;7.00;2.33;;;;;;;-0.65;89.28;93924.53;6159400;23;20449;-77
2023/02/06 07:03:01;;;;;;;10.45;3.10;;;;;;;-0.71;90.60;93920.88;6158975;23;20019;-77
2023/02/06 07:05:27;;;;;;;8.45;3.03;;;;;;;-0.70;90.77;93922.50;6159862;23;20013;-78
2023/02/06 07:07:53;;;;;;;6.93;2.45;;;;;;;-0.66;90.20;93923.69;6159670;23;20009;-77
2023/02/06 07:10:18;;;;;;;8.00;2.97;;;;;;;-0.67;89.00;93916.97;6186126;23;20514;-78
2023/02/06 07:12:44;;;;;;;5.05;2.42;;;;;;;-0.65;88.84;93915.03;6186197;23;20012;-78
2023/02/06 07:15:10;;;;;;;7.15;2.50;;;;;;;-0.64;87.96;93921.75;6159520;23;20021;-77
2023/02/06 07:17:37;;;;;;;4.53;2.35;;;;;;;-0.63;87.76;93925.94;6185426;23;19997;-78
2023/02/06 07:20:03;;;;;;;11.65;2.60;;;;;;;-0.58;87.88;93927.94;6185453;23;20028;-78
2023/02/06 07:22:29;;;;;;;4.05;2.22;;;;;;;-0.48;86.86;93925.88;6158860;23;20029;-78
2023/02/06 07:24:56;;;;;;;5.90;2.60;;;;;;;-0.50;85.70;93916.75;6159187;23;20024;-78
2023/02/06 07:27:22;;;;;;;15.85;2.67;;;;;;;-0.36;84.67;93910.75;6159641;23;20064;-78
2023/02/06 07:29:47;;;;;;;5.97;2.15;;;;;;;-0.32;84.42;93911.16;6160057;23;20021;-78
2023/02/06 07:32:13;;;;;;;8.13;2.28;;;;;;;-0.44;84.13;93910.88;6185652;23;20012;-78
2023/02/06 07:34:39;;;;;;;6.15;2.55;;;;;;;-0.39;83.18;93898.25;6160679;23;20323;-77
2023/02/06 07:37:05;;;;;;;3.75;2.20;;;;;;;-0.51;83.98;93904.88;6160998;23;20005;-77
2023/02/06 07:39:33;;;;;;;4.80;2.30;;;;;;;-0.57;84.81;93900.44;6187473;23;20076;-77
2023/02/06 07:41:58;;;;;;;4.47;2.30;;;;;;;-0.53;84.46;93907.63;6187613;23;20032;-77
2023/02/06 07:44:30;;;;;;;10.63;2.42;;;;;;;-0.51;85.04;93905.66;6162459;23;20013;-78
2023/02/06 07:46:57;;;;;;;6.20;1.73;;;;;;;-0.23;83.63;93899.75;6186964;23;20028;-77
2023/02/06 07:49:23;;;;;;;4.43;2.38;;;;;;;-0.31;83.70;93903.28;6187461;23;20009;-77
2023/02/06 07:51:48;;;;;;;5.00;2.25;;;;;;;-0.47;84.17;93906.09;6187339;23;20525;-78
2023/02/06 07:54:15;;;;;;;5.22;2.38;;;;;;;-0.37;84.23;93914.28;6187180;23;20009;-77
2023/02/06 07:56:40;;;;;;;3.80;1.92;;;;;;;-0.27;84.20;93917.38;6160459;23;20045;-77
2023/02/06 07:59:06;;;;;;;6.20;2.45;;;;;;;-0.28;83.38;93912.41;6160670;23;20460;-78
2023/02/06 08:01:32;;;;;;;5.25;2.42;;;;;;;-0.29;84.11;93909.03;6185990;23;20044;-77
2023/02/06 08:03:59;;;;;;;7.90;2.40;;;;;;;-0.38;85.00;93920.44;6160415;23;20005;-78
2023/02/06 08:06:25;;;;;;;5.85;2.08;;;;;;;-0.32;85.90;93911.97;6160511;23;20091;-77
2023/02/06 08:08:53;;;;;;;9.05;2.50;;;;;;;-0.26;85.60;93913.81;6161062;23;20005;-78
2023/02/06 08:11:22;;;;;;;4.60;1.70;;;;;;;-0.17;82.94;93917.06;6186566;23;20064;-77
2023/02/06 08:13:48;;;;;;;5.43;2.50;;;;;;;-0.29;83.78;93921.91;6186452;23;20424;-77
2023/02/06 08:16:16;;;;;;;10.60;2.63;;;;;;;-0.29;83.39;93924.47;6186198;23;20095;-77
2023/02/06 08:18:42;;;;;;;3.92;2.35;;;;;;;-0.34;84.92;93919.06;6186971;23;20001;-77
2023/02/06 08:21:23;;;;;;;6.85;2.30;;;;;;;-0.15;83.67;93925.38;6160178;23;20013;-77
2023/02/06 08:23:59;;;;;;;21.33;3.40;;;;;;;-0.16;84.15;93923.00;6160581;23;20061;-77
2023/02/06 08:26:27;;;;;;;4.70;2.38;;;;;;;-0.15;82.97;93924.59;6160621;23;20008;-77
2023/02/06 08:28:53;;;;;;;5.43;2.42;;;;;;;-0.28;83.49;93923.47;6186840;23;20044;-77
2023/02/06 08:31:24;;;;;;;8.15;2.70;;;;;;;-0.39;84.58;93921.41;6160408;23;20017;-77
2023/02/06 08:33:50;;;;;;;4.65;2.30;;;;;;;-0.39;85.01;93923.97;6187245;23;20013;-78
2023/02/06 08:36:19;;;;;;;9.52;3.05;;;;;;;-0.29;85.72;93924.47;6186782;23;20001;-77
2023/02/06 08:38:45;;;;;;;8.93;4.32;;;;;;;-0.40;87.44;93919.81;6160191;23;20015;-78
2023/02/06 08:41:26;;;;;;;25.90;13.32;;;;;;;-0.44;85.33;93921.16;6187026;23;20072;-78
2023/02/06 08:43:54;;;;;;;5.22;2.95;;;;;;;-0.43;86.68;93927.88;6160482;23;20016;-78
2023/02/06 08:46:21;;;;;;;21.23;8.95;;;;;;;-0.42;87.29;93929.50;6186014;23;20050;-77
2023/02/06 08:48:47;;;;;;;5.72;2.80;;;;;;;-0.35;86.85;93924.41;6187066;23;20029;-78
2023/02/06 08:51:14;;;;;;;7.22;4.32;;;;;;;-0.10;86.16;93935.13;6160686;23;20008;-77
2023/02/06 08:53:40;;;;;;;8.43;2.67;;;;;;;0.16;83.63;93935.34;6187042;23;20017;-77
2023/02/06 08:56:09;;;;;;;6.25;3.42;;;;;;;0.00;84.13;93927.91;6186177;23;20101;-78
2023/02/06 08:58:37;;;;;;;8.07;3.17;;;;;;;-0.13;85.18;93930.38;6160515;23;20013;-77
2023/02/06 09:01:15;;;;;;;5.07;2.47;;;;;;;0.08;84.08;93920.03;6135113;23;20028;-78
2023/02/06 09:03:43;;;;;;;4.25;2.28;;;;;;;0.08;84.55;93920.03;6160653;23;20424;-77
2023/02/06 09:06:10;;;;;;;5.53;2.78;;;;;;;-0.02;85.12;93920.34;6160876;23;20001;-77
2023/02/06 09:08:38;;;;;;;14.93;9.93;;;;;;;0.02;85.27;93930.28;6187108;23;20013;-77
2023/02/06 09:11:06;;;;;;;5.72;2.83;;;;;;;-0.09;84.98;93928.97;6160544;23;20028;-77
2023/02/06 09:13:33;;;;;;;9.85;4.70;;;;;;;-0.19;85.02;93926.72;6186960;23;20072;-78
2023/02/06 09:15:58;;;;;;;2.83;1.88;;;;;;;0.17;81.62;93924.06;6187021;23;19997;-77
2023/02/06 09:18:25;;;;;;;3.63;2.08;;;;;;;0.01;82.74;93919.19;6186814;23;20040;-78
2023/02/06 09:20:51;;;;;;;5.40;2.60;;;;;;;-0.02;82.74;93915.19;6186980;23;20000;-78
2023/02/06 09:23:17;;;;;;;6.68;2.65;;;;;;;-0.02;84.16;93919.56;6136191;23;20036;-77
2023/02/06 09:25:44;;;;;;;3.47;2.20;;;;;;;0.26;81.33;93914.41;6186916;23;20011;-77
2023/02/06 09:28:10;;;;;;;5.78;3.08;;;;;;;0.33;81.61;93906.72;6186499;23;20087;-78
2023/02/06 09:30:36;;;;;;;5.38;2.63;;;;;;;0.23;82.54;93898.56;6186982;23;20066;-77
2023/02/06 09:33:02;;;;;;;8.98;5.00;;;;;;;0.29;80.95;93900.34;6136286;23;20524;-78
2023/02/06 09:35:27;;;;;;;8.57;3.33;;;;;;;0.37;80.74;93887.34;6160692;23;20342;-78
2023/02/06 09:37:53;;;;;;;6.30;2.30;;;;;;;0.52;79.41;93890.59;6160193;23;20024;-77
2023/02/06 09:40:25;;;;;;;8.13;2.97;;;;;;;0.46;79.18;93895.72;6160348;23;20036;-78
2023/02/06 09:42:52;;;;;;;6.30;3.35;;;;;;;0.35;79.98;93900.41;6186444;23;20013;-78
2023/02/06 09:45:24;;;;;;;6.40;2.67;;;;;;;0.40;79.21;93905.00;6186895;23;20488;-78
2023/02/06 09:48:01;;;;;;;6.03;3.50;;;;;;;0.49;78.43;93903.84;6186660;23;20017;-78
2023/02/06 09:50:34;;;;;;;6.57;2.75;;;;;;;0.53;77.44;93897.34;6186277;23;20013;-78
2023/02/06 09:53:23;;;;;;;8.05;3.67;;;;;;;0.39;78.42;93885.38;6160247;23;20055;-78
2023/02/06 09:55:59;;;;;;;3.55;1.65;;;;;;;0.60;76.28;93882.69;6185570;23;20008;-77
2023/02/06 09:58:43;;;;;;;4.18;2.28;;;;;;;0.64;76.50;93879.75;6159923;23;20061;-78
2023/02/06 10:01:37;;;;;;;4.13;1.33;;;;;;;0.90;76.30;93877.31;6185983;23;20388;-77
2023/02/06 10:04:08;;;;;;;2.40;1.52;;;;;;;1.25;74.51;93874.63;6186107;23;20013;-77
2023/02/06 10:06:42;;;;;;;32.20;12.52;;;;;;;1.01;74.52;93879.34;6186328;23;20009;-78
2023/02/06 10:09:19;;;;;;;5.90;2.70;;;;;;;1.11;75.46;93875.59;6185846;23;20055;-77
2023/02/06 10:11:53;;;;;;;6.28;2.30;;;;;;;0.94;75.41;93878.50;6160428;23;20113;-78
2023/02/06 10:14:34;;;;;;;9.82;2.70;;;;;;;1.03;77.13;93868.81;6186715;23;20020;-78
2023/02/06 10:17:09;;;;;;;33.25;10.88;;;;;;;1.29;75.65;93865.53;6160411;23;20020;-78
2023/02/06 10:19:57;;;;;;;4.53;2.63;;;;;;;1.46;75.12;93860.78;6186907;23;20012;-78
2023/02/06 10:22:29;;;;;;;7.03;2.90;;;;;;;1.29;76.07;93862.94;6186817;23;20036;-78
2023/02/06 10:25:26;;;;;;;4.05;1.60;;;;;;;1.38;74.34;93866.94;6185977;23;20032;-78
2023/02/06 10:27:56;;;;;;;7.10;3.15;;;;;;;1.28;74.99;93866.50;6186159;23;20083;-77
2023/02/06 10:30:51;;;;;;;4.50;2.38;;;;;;;1.22;74.69;93854.41;6160308;23;20013;-77
2023/02/06 10:33:43;;;;;;;3.33;2.03;;;;;;;1.31;74.93;93855.81;6186952;23;20013;-78
2023/02/06 10:36:50;;;;;;;7.28;2.67;;;;;;;1.16;74.64;93840.47;6186526;23;20096;-77
2023/02/06 10:39:34;;;;;;;5.68;2.20;;;;;;;1.17;75.40;93839.50;6041957;23;20018;-78
2023/02/06 10:42:19;;;;;;;8.50;4.03;;;;;;;0.96;76.97;93832.69;6125616;23;20095;-77
2023/02/06 10:45:09;;;;;;;10.73;3.25;;;;;;;0.84;77.31;93831.66;6159747;23;20012;-78
2023/02/06 10:47:43;;;;;;;20.55;7.82;;;;;;;0.87;77.81;93820.16;6186064;23;20013;-77
2023/02/06 10:50:30;;;;;;;6.47;3.05;;;;;;;0.76;77.02;93813.78;6186316;23;20039;-78
2023/02/06 10:53:05;;;;;;;13.07;4.82;;;;;;;0.64;77.65;93810.97;6186214;23;20085;-77
2023/02/06 10:55:46;;;;;;;4.93;2.75;;;;;;;0.71;77.80;93811.00;6186112;23;20013;-77
2023/02/06 10:58:24;;;;;;;4.00;2.33;;;;;;;0.87;77.27;93810.66;6186237;23;20063;-77
2023/02/06 11:00:51;;;;;;;4.03;2.28;;;;;;;0.92;76.30;93795.38;6159337;23;20083;-77
2023/02/06 11:03:20;;;;;;;11.05;4.72;;;;;;;0.79;77.58;93803.09;6185916;23;20080;-78
2023/02/06 11:05:46;;;;;;;6.82;4.03;;;;;;;0.78;76.88;93807.44;6159657;23;20016;-78
2023/02/06 11:08:18;;;;;;;5.38;2.88;;;;;;;0.74;77.53;93805.44;6185861;23;20008;-77
2023/02/06 11:10:45;;;;;;;8.40;4.35;;;;;;;0.59;78.42;93798.66;6159211;23;20025;-78
2023/02/06 11:13:20;;;;;;;4.57;2.45;;;;;;;0.54;79.03;93801.03;6185943;23;20004;-78
2023/02/06 11:15:49;;;;;;;5.88;2.42;;;;;;;0.70;78.51;93796.50;6159317;23;20404;-77
2023/02/06 11:18:19;;;;;;;25.13;8.65;;;;;;;0.75;77.23;93796.75;6159387;23;19997;-78
2023/02/06 11:20:47;;;;;;;13.40;4.68;;;;;;;0.79;77.56;93788.44;6160171;23;20010;-78
2023/02/06 11:23:20;;;;;;;3.03;1.83;;;;;;;0.81;77.89;93781.28;6160019;23;20023;-78
2023/02/06 11:26:03;;;;;;;8.10;3.55;;;;;;;0.85;76.76;93776.53;6186109;23;20013;-78
2023/02/06 11:28:32;;;;;;;;;;;;;;;0.87;76.25;93779.72;6160032;23;20065;-77
2023/02/06 11:31:04;;;;;;;13.82;3.45;;;;;;;0.97;75.97;93774.19;6185959;23;19990;-78
2023/02/06 11:33:48;;;;;;;6.32;3.08;;;;;;;0.80;76.05;93769.38;6186202;23;20009;-77
2023/02/06 11:36:26;;;;;;;9.30;3.35;;;;;;;0.68;77.66;93767.56;6186373;23;20471;-77
2023/02/06 11:38:58;;;;;;;8.43;3.17;;;;;;;0.64;77.50;93756.06;6159773;23;20067;-78
2023/02/06 11:41:24;;;;;;;4.75;2.50;;;;;;;0.77;77.46;93758.69;6186338;23;20349;-78